Terminal Aerodrome Forecast
Issued by NWS

Home | Current Version | Previous Version | Text Only | Print | Product List | Glossary On
Versions: 1 2 3 4 5 6 7 8 9 10 11 12 13 14 15 16 17 18 19 20 21 22
000
FTUS45 KFGZ 010500
TAFGCN
TAF
KGCN 010538Z 0106/0206 VRB05KT P6SM BKN020 OVC030
     FM010730 21006KT P6SM SCT012 OVC020
      TEMPO 0108/0112 3SM -SHRASN BR BKN012
     FM011200 VRB05KT 3SM -SHRASN BR SCT008 OVC012
     FM011600 21007KT 5SM -SHRA BR BKN008 OVC012
     FM012100 20010KT 3SM -RA BR SCT006 OVC008=

USA.gov is the U.S. government's official web portal to all federal, state and local government web resources and services.